This is the latest recevied weather packets stored in our database for station/object WX6YYZ. If no packets are shown the sender has not sent any weather packets the latest 10 day(s).
| Time | Temp. | Humidity | Pressure | Rain* | Wind** | Luminosity | Snow |
|---|---|---|---|---|---|---|---|
| 1777877773 | 13.89° C | 79% | 1015.2 hPa | 0 mm | - | - | - |
| 1777876839 | 13.89° C | 78% | 1015.2 hPa | 0 mm | - | - | - |
| 1777875936 | 13.89° C | 78% | 1014.9 hPa | 0 mm | - | - | - |
| 1777874431 | 13.89° C | 76% | 1014.9 hPa | 0 mm | - | - | - |
| 1777871991 | 13.89° C | 75% | 1015.2 hPa | 0 mm | - | - | - |
| 1777871691 | 13.89° C | 75% | 1015.2 hPa | 0 mm | - | - | - |
| 1777868287 | 14.44° C | 71% | 1014.9 hPa | 0 mm | - | - | - |
| 1777865879 | 14.44° C | 70% | 1014.9 hPa | 0 mm | - | - | - |
| 1777864613 | 14.44° C | 72% | 1014.2 hPa | 0 mm | - | - | - |
| 1777862744 | 15° C | 70% | 1013.5 hPa | 0 mm | - | - | - |
| 1777861209 | 15.56° C | 69% | 1013.2 hPa | 0 mm | - | - | - |
| 1777856993 | 17.22° C | 61% | 1012.5 hPa | 0 mm | - | - | - |
| 1777856028 | 17.22° C | 61% | 1012.5 hPa | 0 mm | - | - | - |
| 1777855125 | 17.78° C | 61% | 1012.5 hPa | 0 mm | - | - | - |
| 1777854825 | 17.78° C | 60% | 1012.5 hPa | 0 mm | - | - | - |
| 1777853497 | 18.33° C | 60% | 1012.2 hPa | 0 mm | - | - | - |
| 1777851961 | 18.33° C | 62% | 1012.2 hPa | 0 mm | - | - | - |
| 1777847018 | 18.89° C | 68% | 1012.9 hPa | 0 mm | - | - | - |
| 1777844246 | 18.89° C | 67% | 1013.2 hPa | 0 mm | - | - | - |
| 1777842615 | 19.44° C | 67% | 1013.2 hPa | 0 mm | - | - | - |
| 1777835074 | 15° C | 90% | 1014.6 hPa | 0 mm | - | - | - |
| 1777831335 | 13.33° C | 95% | 1014.9 hPa | 0 mm | - | - | - |
| 1777830733 | 13.33° C | 95% | 1014.9 hPa | 0 mm | - | - | - |
| 1777830131 | 13.33° C | 95% | 1014.6 hPa | 0 mm | - | - | - |
| 1777826456 | 13.33° C | 95% | 1014.2 hPa | 0 mm | - | - | - |
* Rain latest hour (hover to see other rain measurements)
** Current wind speed in m/s (hover to see current wind gust speed)